Nord Angel — 3FEP6 — position and weather

sailwx.info

Track history (hours):
 
Tides and Currents Weather Stations Pressure Air Temp Water Temp Dewpoint Dewpoint Depression Visibility Wind Speed Wind Dir Waves Ship Positions

Nord Angel

Last reported at 2017-Dec-23 11:43 UTC. Time now 2018-Jan-18 04:17 UTC.
Position S 06°38' E 112°46'.
Warning: this ship's position is 25 days out of date.

Length 190 m; draft 11.1 m.

Type: Cargo ship. MMSI: 371326000.

Date/timePositionNaut miles runAvg speedWind from/ knotsBaromVisibWave heightAir tempDewpointWater temp
2017-Dec-23 11:43S 06°38' E 112°46'412.3
2017-Dec-23 11:25S 06°42' E 112°46'711.8
2017-Dec-23 10:51S 06°49' E 112°45'4 9.1
2017-Dec-23 10:25S 06°53' E 112°44'410.4
2017-Dec-23 09:59S 06°57' E 112°43'611.4
2017-Dec-23 09:29S 07°02' E 112°40'3 6.0
2017-Dec-23 08:56S 07°05' E 112°39'0 0.0
2017-Dec-23 08:26S 07°05' E 112°39'0 0.0
2017-Dec-23 06:38S 07°05' E 112°39'0 0.0
2017-Dec-23 01:17S 07°05' E 112°39'0 0.0
2017-Dec-22 18:35S 07°05' E 112°39'0 0.0
2017-Dec-22 11:23S 07°05' E 112°39'0 0.0
2017-Dec-22 10:41S 07°05' E 112°39'0 0.0
2017-Dec-22 06:59S 07°05' E 112°39'0 0.0
2017-Dec-22 01:05S 07°05' E 112°39'0 0.0
2017-Dec-21 15:32S 07°05' E 112°39'0 0.0
2017-Dec-21 10:35S 07°05' E 112°39'0 0.0
2017-Dec-21 10:14S 07°05' E 112°39'0 0.0
2017-Dec-21 09:11S 07°05' E 112°39'0 0.0
2017-Dec-21 08:59S 07°05' E 112°39'0 0.0
2017-Dec-20 20:26S 07°05' E 112°39'0 0.0
2017-Dec-20 14:20S 07°05' E 112°39'0 0.0
2017-Dec-20 13:41S 07°05' E 112°39'0 0.0
2017-Dec-20 04:38S 07°05' E 112°39'0 0.0
2017-Dec-20 02:47S 07°05' E 112°39'0 0.0
2017-Dec-20 02:23S 07°05' E 112°39'0 0.0
2017-Dec-20 01:56S 07°05' E 112°39'0 0.0
2017-Dec-20 01:29S 07°05' E 112°39'0 0.0
2017-Dec-19 19:35S 07°05' E 112°39'0 0.0
2017-Dec-19 19:17S 07°05' E 112°39'0 0.0
2017-Dec-19 15:05S 07°05' E 112°39'0 0.0
2017-Dec-19 14:41S 07°05' E 112°39'0 0.0
2017-Dec-19 02:23S 07°05' E 112°39'0 0.0
2017-Dec-19 01:59S 07°05' E 112°39'0 0.0
2017-Dec-19 00:35S 07°05' E 112°39'0 0.0
2017-Dec-18 14:08S 07°05' E 112°39'0 0.0
2017-Dec-18 10:41S 07°05' E 112°39'0 0.0
2017-Dec-18 10:17S 07°05' E 112°39'0 0.0
2017-Dec-18 09:59S 07°05' E 112°39'0 0.0
2017-Dec-18 08:11S 07°05' E 112°39'0 0.0
2017-Dec-18 07:41S 07°05' E 112°39'0 0.0
2017-Dec-18 06:38S 07°05' E 112°39'0 0.0
2017-Dec-18 06:26S 07°05' E 112°39'0 0.0
2017-Dec-18 05:29S 07°05' E 112°39'0 0.0
2017-Dec-18 04:56S 07°05' E 112°39'0 0.0
2017-Dec-18 04:29S 07°05' E 112°39'0 0.0
2017-Dec-18 03:56S 07°05' E 112°39'0 0.0
2017-Dec-18 02:20S 07°05' E 112°39'0 0.0
2017-Dec-18 01:20S 07°05' E 112°39'0 0.0
2017-Dec-18 00:59S 07°05' E 112°39'0 0.0
2017-Dec-17 23:17S 07°05' E 112°39'0 0.0
2017-Dec-17 22:44S 07°05' E 112°39'0 0.0
2017-Dec-17 03:38S 07°05' E 112°39'0 0.0
2017-Dec-16 20:53S 07°05' E 112°39'0 0.0
2017-Dec-16 18:44S 07°05' E 112°39'0 0.0
2017-Dec-16 17:29S 07°05' E 112°39'0 0.0
2017-Dec-16 15:35S 07°05' E 112°39'0 0.0
2017-Dec-16 15:14S 07°05' E 112°39'0 0.0
2017-Dec-16 04:29S 07°05' E 112°39'0 0.0
2017-Dec-15 20:12S 07°05' E 112°39'0 0.3
2017-Dec-15 19:59S 07°05' E 112°39'1 1.8
2017-Dec-15 19:27S 07°04' E 112°40'3 7.1
2017-Dec-15 18:59S 07°01' E 112°40'4 7.3
2017-Dec-15 18:30S 06°58' E 112°42'6 7.9
2017-Dec-15 17:47S 06°53' E 112°44'2 6.5
2017-Dec-15 17:30S 06°51' E 112°45'1 1.1
2017-Dec-15 16:59S 06°51' E 112°45'3 1.2
2017-Dec-15 14:26S 06°48' E 112°47'0 0.0
2017-Dec-15 11:16S 06°48' E 112°47'1 3.4
2017-Dec-15 11:00S 06°47' E 112°47'2 4.7
2017-Dec-15 10:29S 06°45' E 112°48'4 7.1
2017-Dec-15 09:58S 06°41' E 112°47'  
Track history (hours):
 
Tides and Currents Weather Stations Pressure Air Temp Water Temp Dewpoint Dewpoint Depression Visibility Wind Speed Wind Dir Waves Ship Positions

Nord Angel

Last reported at 2017-Dec-23 11:43 UTC. Time now 2018-Jan-18 04:17 UTC.
Position S 06°38' E 112°46'.
Warning: this ship's position is 25 days out of date.

Length 190 m; draft 11.1 m.

Type: Cargo ship. MMSI: 371326000.

Date/timePositionNaut miles runAvg speedWind from/ knotsBaromVisibWave heightAir tempDewpointWater temp
2017-Dec-23 11:43S 06°38' E 112°46'412.3
2017-Dec-23 11:25S 06°42' E 112°46'711.8
2017-Dec-23 10:51S 06°49' E 112°45'4 9.1
2017-Dec-23 10:25S 06°53' E 112°44'410.4
2017-Dec-23 09:59S 06°57' E 112°43'611.4
2017-Dec-23 09:29S 07°02' E 112°40'3 6.0
2017-Dec-23 08:56S 07°05' E 112°39'0 0.0
2017-Dec-23 08:26S 07°05' E 112°39'0 0.0
2017-Dec-23 06:38S 07°05' E 112°39'0 0.0
2017-Dec-23 01:17S 07°05' E 112°39'0 0.0
2017-Dec-22 18:35S 07°05' E 112°39'0 0.0
2017-Dec-22 11:23S 07°05' E 112°39'0 0.0
2017-Dec-22 10:41S 07°05' E 112°39'0 0.0
2017-Dec-22 06:59S 07°05' E 112°39'0 0.0
2017-Dec-22 01:05S 07°05' E 112°39'0 0.0
2017-Dec-21 15:32S 07°05' E 112°39'0 0.0
2017-Dec-21 10:35S 07°05' E 112°39'0 0.0
2017-Dec-21 10:14S 07°05' E 112°39'0 0.0
2017-Dec-21 09:11S 07°05' E 112°39'0 0.0
2017-Dec-21 08:59S 07°05' E 112°39'0 0.0
2017-Dec-20 20:26S 07°05' E 112°39'0 0.0
2017-Dec-20 14:20S 07°05' E 112°39'0 0.0
2017-Dec-20 13:41S 07°05' E 112°39'0 0.0
2017-Dec-20 04:38S 07°05' E 112°39'0 0.0
2017-Dec-20 02:47S 07°05' E 112°39'0 0.0
2017-Dec-20 02:23S 07°05' E 112°39'0 0.0
2017-Dec-20 01:56S 07°05' E 112°39'0 0.0
2017-Dec-20 01:29S 07°05' E 112°39'0 0.0
2017-Dec-19 19:35S 07°05' E 112°39'0 0.0
2017-Dec-19 19:17S 07°05' E 112°39'0 0.0
2017-Dec-19 15:05S 07°05' E 112°39'0 0.0
2017-Dec-19 14:41S 07°05' E 112°39'0 0.0
2017-Dec-19 02:23S 07°05' E 112°39'0 0.0
2017-Dec-19 01:59S 07°05' E 112°39'0 0.0
2017-Dec-19 00:35S 07°05' E 112°39'0 0.0
2017-Dec-18 14:08S 07°05' E 112°39'0 0.0
2017-Dec-18 10:41S 07°05' E 112°39'0 0.0
2017-Dec-18 10:17S 07°05' E 112°39'0 0.0
2017-Dec-18 09:59S 07°05' E 112°39'0 0.0
2017-Dec-18 08:11S 07°05' E 112°39'0 0.0
2017-Dec-18 07:41S 07°05' E 112°39'0 0.0
2017-Dec-18 06:38S 07°05' E 112°39'0 0.0
2017-Dec-18 06:26S 07°05' E 112°39'0 0.0
2017-Dec-18 05:29S 07°05' E 112°39'0 0.0
2017-Dec-18 04:56S 07°05' E 112°39'0 0.0
2017-Dec-18 04:29S 07°05' E 112°39'0 0.0
2017-Dec-18 03:56S 07°05' E 112°39'0 0.0
2017-Dec-18 02:20S 07°05' E 112°39'0 0.0
2017-Dec-18 01:20S 07°05' E 112°39'0 0.0
2017-Dec-18 00:59S 07°05' E 112°39'0 0.0
2017-Dec-17 23:17S 07°05' E 112°39'0 0.0
2017-Dec-17 22:44S 07°05' E 112°39'0 0.0
2017-Dec-17 03:38S 07°05' E 112°39'0 0.0
2017-Dec-16 20:53S 07°05' E 112°39'0 0.0
2017-Dec-16 18:44S 07°05' E 112°39'0 0.0
2017-Dec-16 17:29S 07°05' E 112°39'0 0.0
2017-Dec-16 15:35S 07°05' E 112°39'0 0.0
2017-Dec-16 15:14S 07°05' E 112°39'0 0.0
2017-Dec-16 04:29S 07°05' E 112°39'0 0.0
2017-Dec-15 20:12S 07°05' E 112°39'0 0.3
2017-Dec-15 19:59S 07°05' E 112°39'1 1.8
2017-Dec-15 19:27S 07°04' E 112°40'3 7.1
2017-Dec-15 18:59S 07°01' E 112°40'4 7.3
2017-Dec-15 18:30S 06°58' E 112°42'6 7.9
2017-Dec-15 17:47S 06°53' E 112°44'2 6.5
2017-Dec-15 17:30S 06°51' E 112°45'1 1.1
2017-Dec-15 16:59S 06°51' E 112°45'3 1.2
2017-Dec-15 14:26S 06°48' E 112°47'0 0.0
2017-Dec-15 11:16S 06°48' E 112°47'1 3.4
2017-Dec-15 11:00S 06°47' E 112°47'2 4.7
2017-Dec-15 10:29S 06°45' E 112°48'4 7.1
2017-Dec-15 09:58S 06°41' E 112°47'  

Dump ship's entire track history